Time;durP1;ratioP1;P1;durP2;ratioP2;P2;SDS_P1;SDS_P2;PMS_P1;PMS_P2;Temp;Humidity;BMP_temperature;BMP_pressure;BME280_temperature;BME280_humidity;BME280_pressure;Samples;Min_cycle;Max_cycle;Signal;HPM_P1;HPM_P2
2021/06/01 00:01:46;;;;;;;2.52;1.40;;;;;;;11.35;72.16;100700.03;1737463;81;21014;-44
2021/06/01 00:04:12;;;;;;;3.25;1.20;;;;;;;11.30;72.32;100703.93;1737731;81;21547;-45
2021/06/01 00:06:40;;;;;;;3.10;1.90;;;;;;;11.28;72.56;100708.02;1735797;81;21009;-43
2021/06/01 00:09:09;;;;;;;5.08;1.75;;;;;;;11.25;72.56;100706.86;1736164;81;21300;-44
2021/06/01 00:11:36;;;;;;;3.30;1.60;;;;;;;11.20;72.67;100703.59;1733900;81;21972;-45
2021/06/01 00:14:05;;;;;;;3.20;1.67;;;;;;;11.21;72.82;100704.86;1732759;81;20994;-44
2021/06/01 00:16:32;;;;;;;3.33;1.90;;;;;;;11.21;72.87;100702.19;1737420;80;21578;-47
2021/06/01 00:18:58;;;;;;;2.60;1.50;;;;;;;11.20;72.96;100703.12;1737354;80;21025;-44
2021/06/01 00:21:25;;;;;;;4.95;1.87;;;;;;;11.18;73.08;100706.34;1735538;80;21061;-45
2021/06/01 00:23:54;;;;;;;3.58;1.50;;;;;;;11.17;73.18;100705.11;1705401;82;20998;-45
2021/06/01 00:26:20;;;;;;;2.40;1.70;;;;;;;11.17;73.22;100701.97;1737782;80;21006;-46
2021/06/01 00:28:50;;;;;;;2.95;1.30;;;;;;;11.19;73.42;100699.22;1740401;80;21018;-43
2021/06/01 00:31:16;;;;;;;2.27;1.22;;;;;;;11.22;73.35;100704.38;1739259;80;21510;-42
2021/06/01 00:33:43;;;;;;;2.22;1.57;;;;;;;11.24;73.06;100708.67;1742332;80;20997;-43
2021/06/01 00:36:10;;;;;;;5.08;1.80;;;;;;;11.22;72.88;100708.37;1737605;81;21047;-44
2021/06/01 00:38:37;;;;;;;2.15;1.57;;;;;;;11.22;72.88;100713.72;1742491;81;21061;-45
2021/06/01 00:41:04;;;;;;;4.60;1.72;;;;;;;11.21;72.76;100711.98;1736105;80;21063;-42
2021/06/01 00:43:31;;;;;;;3.08;1.55;;;;;;;11.19;72.77;100709.41;1739494;80;20995;-42
2021/06/01 00:45:58;;;;;;;3.37;1.70;;;;;;;11.19;72.82;100713.91;1736710;81;20979;-44
2021/06/01 00:48:24;;;;;;;2.15;1.37;;;;;;;11.16;72.83;100706.05;1740126;80;21038;-42
2021/06/01 00:50:51;;;;;;;6.30;1.70;;;;;;;11.16;72.89;100709.59;1737911;81;20990;-46
2021/06/01 00:53:18;;;;;;;4.33;1.62;;;;;;;11.17;72.95;100707.30;1735136;81;21010;-47
2021/06/01 00:55:45;;;;;;;3.70;1.60;;;;;;;11.16;72.83;100710.94;1702909;82;21105;-44
2021/06/01 00:58:11;;;;;;;4.17;1.90;;;;;;;11.16;72.81;100710.05;1736915;81;21009;-45
2021/06/01 01:03:22;;;;;;;4.83;2.05;;;;;;;11.16;72.88;100710.05;1739103;81;21018;-44
2021/06/01 01:05:50;;;;;;;2.70;1.50;;;;;;;11.09;72.79;100704.22;1740862;80;20959;-45
2021/06/01 01:11:38;;;;;;;4.05;1.90;;;;;;;10.96;73.09;100712.51;1735696;81;20986;-45
2021/06/01 01:14:30;;;;;;;2.30;1.67;;;;;;;10.96;73.32;100706.73;1734421;80;21321;-44
2021/06/01 01:17:05;;;;;;;1.82;1.30;;;;;;;10.95;73.35;100698.31;1756416;80;21056;-43
2021/06/01 01:19:55;;;;;;;5.37;2.80;;;;;;;10.94;73.50;100705.09;1758001;80;20970;-43
2021/06/01 01:22:21;;;;;;;2.92;1.98;;;;;;;10.94;73.60;100706.42;1756593;80;21001;-44
2021/06/01 01:24:54;;;;;;;2.47;1.60;;;;;;;10.91;73.45;100704.80;1760945;80;21461;-43
2021/06/01 01:27:34;;;;;;;3.42;1.70;;;;;;;10.85;73.48;100705.59;1722202;81;21084;-43
2021/06/01 01:30:02;;;;;;;2.25;1.17;;;;;;;10.83;73.74;100702.55;1734164;81;21005;-47
2021/06/01 01:32:50;;;;;;;5.25;1.77;;;;;;;10.83;73.87;100707.00;1757334;80;21463;-47
2021/06/01 01:35:17;;;;;;;3.17;1.92;;;;;;;10.81;73.95;100707.59;1753316;80;21571;-46
2021/06/01 01:37:44;;;;;;;2.62;1.57;;;;;;;10.79;74.05;100708.14;1757351;80;20985;-44
2021/06/01 01:40:11;;;;;;;2.30;1.77;;;;;;;10.75;74.07;100707.44;1735140;80;21053;-45
2021/06/01 01:42:41;;;;;;;3.25;1.92;;;;;;;10.75;74.20;100708.77;1753054;80;20962;-44
2021/06/01 01:45:18;;;;;;;3.65;1.75;;;;;;;10.77;74.30;100707.36;1757960;80;21025;-45
2021/06/01 01:50:40;;;;;;;3.83;1.87;;;;;;;10.68;74.20;100706.05;1756740;80;21005;-43
2021/06/01 01:53:12;;;;;;;2.67;2.05;;;;;;;10.64;74.38;100703.19;1755559;80;21021;-40
2021/06/01 01:55:39;;;;;;;2.90;1.62;;;;;;;10.59;74.41;100706.58;1734836;81;20978;-41
2021/06/01 01:58:07;;;;;;;3.37;1.55;;;;;;;10.55;74.54;100707.67;1755741;80;21617;-40
2021/06/01 02:00:34;;;;;;;2.00;1.40;;;;;;;10.52;74.66;100714.04;1759161;80;21001;-41
2021/06/01 02:03:00;;;;;;;3.72;1.80;;;;;;;10.49;74.72;100711.55;1755919;80;20974;-41
2021/06/01 02:05:27;;;;;;;2.52;1.50;;;;;;;10.44;74.90;100710.08;1735911;81;21013;-42
2021/06/01 02:07:55;;;;;;;5.47;2.15;;;;;;;10.38;74.96;100709.47;1755345;80;20992;-39
2021/06/01 02:10:22;;;;;;;4.22;1.90;;;;;;;10.33;75.14;100703.98;1759323;80;21006;-38
2021/06/01 02:12:49;;;;;;;4.87;1.70;;;;;;;10.28;75.27;100706.03;1722654;81;20965;-40
2021/06/01 02:15:15;;;;;;;3.75;2.20;;;;;;;10.21;75.45;100704.63;1747876;80;21109;-40
2021/06/01 02:17:41;;;;;;;5.53;2.25;;;;;;;10.15;75.79;100706.67;1739310;81;21881;-41
2021/06/01 02:20:12;;;;;;;2.12;1.40;;;;;;;10.16;76.04;100706.20;1723138;81;21030;-42
2021/06/01 02:25:42;;;;;;;2.30;1.65;;;;;;;10.18;76.25;100709.66;1742986;80;20982;-39
2021/06/01 02:28:23;;;;;;;2.72;1.60;;;;;;;10.19;76.39;100710.03;1740989;81;21074;-37
2021/06/01 02:31:00;;;;;;;6.20;1.98;;;;;;;10.20;76.51;100701.08;1739488;81;20967;-41
2021/06/01 02:33:29;;;;;;;3.30;2.10;;;;;;;10.18;76.44;100706.51;1737524;81;21560;-44
2021/06/01 02:35:56;;;;;;;2.90;1.45;;;;;;;10.17;76.66;100710.09;1744404;80;21025;-44
2021/06/01 02:38:23;;;;;;;3.65;1.57;;;;;;;10.16;76.68;100707.05;1736423;81;20971;-43
2021/06/01 02:40:49;;;;;;;3.35;2.02;;;;;;;10.21;76.88;100712.63;1736555;81;21029;-41
2021/06/01 02:43:17;;;;;;;2.50;2.10;;;;;;;10.23;76.95;100708.05;1738754;81;21014;-44
2021/06/01 02:45:44;;;;;;;3.15;1.90;;;;;;;10.25;76.83;100709.69;1737984;81;20998;-43
2021/06/01 02:48:13;;;;;;;3.47;1.45;;;;;;;10.27;76.98;100706.47;1740056;81;21033;-39
2021/06/01 02:50:42;;;;;;;4.67;2.00;;;;;;;10.30;77.00;100711.66;1737590;80;21046;-41
2021/06/01 02:53:10;;;;;;;2.70;1.60;;;;;;;10.31;76.86;100707.22;1738317;81;21521;-43
2021/06/01 02:55:39;;;;;;;3.40;2.33;;;;;;;10.32;76.86;100713.78;1726653;81;21545;-38
2021/06/01 02:58:09;;;;;;;3.85;2.12;;;;;;;10.32;76.78;100708.45;1707280;82;20994;-38
2021/06/01 03:00:37;;;;;;;3.12;2.02;;;;;;;10.30;76.65;100711.66;1710154;82;20969;-39
2021/06/01 03:03:11;;;;;;;2.52;1.98;;;;;;;10.27;76.66;100703.80;1737777;81;21038;-40
2021/06/01 03:05:38;;;;;;;2.17;1.67;;;;;;;10.24;76.88;100701.31;1737315;80;21565;-40
2021/06/01 03:08:29;;;;;;;4.45;1.72;;;;;;;10.25;76.96;100713.69;1739666;80;20970;-43
2021/06/01 03:11:02;;;;;;;3.00;2.02;;;;;;;10.28;76.96;100711.36;1740679;81;20994;-41
2021/06/01 03:13:29;;;;;;;3.05;2.00;;;;;;;10.27;76.94;100711.80;1737929;81;21091;-40
2021/06/01 03:15:56;;;;;;;7.70;2.22;;;;;;;10.27;76.99;100713.61;1735772;80;21010;-41
2021/06/01 03:18:24;;;;;;;5.67;2.27;;;;;;;10.29;77.14;100705.95;1736873;81;21046;-43
2021/06/01 03:20:51;;;;;;;2.70;1.72;;;;;;;10.33;77.12;100709.30;1731623;81;21019;-41
2021/06/01 03:23:18;;;;;;;2.67;1.65;;;;;;;10.37;77.10;100710.88;1753477;80;21021;-42
2021/06/01 03:25:44;;;;;;;3.40;1.87;;;;;;;10.43;76.85;100714.53;1757372;80;21034;-43
2021/06/01 03:28:11;;;;;;;3.87;2.20;;;;;;;10.51;76.68;100712.81;1757019;80;21116;-42
2021/06/01 03:30:38;;;;;;;2.45;1.90;;;;;;;10.53;76.46;100713.56;1759648;80;21458;-44
2021/06/01 03:33:05;;;;;;;3.47;1.90;;;;;;;10.55;76.46;100717.01;1758358;80;21035;-40
2021/06/01 03:35:31;;;;;;;3.40;1.92;;;;;;;10.57;76.30;100713.80;1735353;80;21013;-38
2021/06/01 03:37:58;;;;;;;3.40;2.30;;;;;;;10.58;76.07;100716.84;1758110;80;20966;-39
2021/06/01 03:40:26;;;;;;;5.05;2.25;;;;;;;10.58;75.81;100705.72;1756595;80;21041;-42
2021/06/01 03:42:53;;;;;;;2.47;2.05;;;;;;;10.60;75.83;100710.95;1752459;80;21373;-41
2021/06/01 03:45:21;;;;;;;4.35;2.20;;;;;;;10.61;75.52;100705.55;1759355;80;21037;-41
2021/06/01 03:47:47;;;;;;;2.22;1.77;;;;;;;10.66;75.73;100703.08;1743628;80;21017;-41
2021/06/01 03:50:14;;;;;;;3.60;2.15;;;;;;;10.72;75.76;100701.42;1748697;80;21490;-41
2021/06/01 03:52:41;;;;;;;2.65;1.98;;;;;;;10.74;75.26;100693.72;1758007;80;21029;-45
2021/06/01 03:55:09;;;;;;;3.50;2.47;;;;;;;10.78;75.09;100690.40;1753406;80;20981;-44
2021/06/01 03:57:36;;;;;;;3.17;1.77;;;;;;;10.81;74.87;100689.77;1757233;80;20998;-41
2021/06/01 04:00:09;;;;;;;3.67;2.70;;;;;;;10.83;74.26;100687.89;1759073;80;21052;-37
2021/06/01 04:02:37;;;;;;;7.05;2.65;;;;;;;10.86;74.58;100684.63;1755017;80;20982;-39
2021/06/01 04:05:05;;;;;;;2.75;1.82;;;;;;;10.93;74.33;100688.20;1757665;80;21017;-43
2021/06/01 04:07:31;;;;;;;3.35;1.77;;;;;;;11.01;74.12;100690.43;1754235;80;20988;-45
2021/06/01 04:09:59;;;;;;;7.83;2.30;;;;;;;11.07;73.26;100687.43;1757265;80;21540;-45
2021/06/01 04:12:25;;;;;;;3.15;2.15;;;;;;;11.11;73.15;100687.62;1755838;80;20946;-40
2021/06/01 04:14:52;;;;;;;3.05;1.90;;;;;;;11.16;72.40;100688.70;1755502;80;21049;-42
2021/06/01 04:17:19;;;;;;;2.62;2.10;;;;;;;11.18;72.04;100689.47;1757095;80;21009;-44
2021/06/01 04:19:46;;;;;;;3.30;2.05;;;;;;;11.22;72.19;100686.55;1723152;81;21052;-43
2021/06/01 04:22:12;;;;;;;2.12;1.92;;;;;;;11.29;71.54;100683.05;1750458;80;21030;-46
2021/06/01 04:24:39;;;;;;;6.85;1.75;;;;;;;11.30;70.63;100679.91;1754537;80;21049;-48
2021/06/01 04:27:07;;;;;;;5.17;2.08;;;;;;;11.29;70.53;100679.50;1754390;80;21092;-44
2021/06/01 04:29:33;;;;;;;3.10;2.27;;;;;;;11.32;70.53;100687.35;1755140;80;21014;-44
2021/06/01 04:32:00;;;;;;;6.42;2.05;;;;;;;11.35;70.55;100685.35;1752898;80;21021;-47
2021/06/01 04:34:26;;;;;;;8.13;3.10;;;;;;;11.40;70.52;100682.42;1755333;80;21014;-43
2021/06/01 04:36:53;;;;;;;3.50;2.00;;;;;;;11.43;69.81;100673.73;1756014;80;21041;-47
2021/06/01 04:39:20;;;;;;;5.03;1.57;;;;;;;11.45;69.72;100672.33;1756270;80;21003;-46
2021/06/01 04:41:46;;;;;;;4.72;1.92;;;;;;;11.50;70.24;100682.26;1757919;80;21053;-43
2021/06/01 04:44:14;;;;;;;3.27;1.87;;;;;;;11.56;70.16;100673.87;1756975;80;20994;-48
2021/06/01 04:46:41;;;;;;;4.50;1.77;;;;;;;11.61;69.75;100678.46;1757065;80;21533;-43
2021/06/01 04:49:07;;;;;;;3.90;2.10;;;;;;;11.64;69.12;100674.30;1758210;80;21006;-51
2021/06/01 04:51:34;;;;;;;2.90;1.80;;;;;;;11.69;69.28;100677.55;1756084;80;20994;-49
2021/06/01 04:54:00;;;;;;;9.25;2.17;;;;;;;11.72;68.49;100675.62;1758483;80;21020;-47
2021/06/01 04:56:28;;;;;;;4.15;2.05;;;;;;;11.73;68.14;100671.53;1757723;80;20994;-47
2021/06/01 04:58:55;;;;;;;3.15;1.65;;;;;;;11.75;68.02;100673.64;1756338;80;21005;-47
2021/06/01 05:01:23;;;;;;;4.30;2.10;;;;;;;11.80;67.92;100673.38;1756889;80;20985;-42
2021/06/01 05:03:50;;;;;;;5.75;2.27;;;;;;;11.85;67.57;100667.27;1754025;80;20997;-45
2021/06/01 05:06:17;;;;;;;2.45;1.98;;;;;;;11.87;66.24;100670.27;1752637;80;21017;-42
2021/06/01 05:08:43;;;;;;;3.95;2.08;;;;;;;11.88;66.50;100677.31;1756363;80;21407;-45
2021/06/01 05:11:10;;;;;;;3.12;2.20;;;;;;;11.93;66.67;100670.84;1758533;80;21002;-42
2021/06/01 05:13:38;;;;;;;3.70;2.10;;;;;;;11.97;66.29;100671.91;1759122;80;21591;-40
2021/06/01 05:16:05;;;;;;;3.72;1.90;;;;;;;12.01;67.26;100665.39;1759859;80;20970;-41
2021/06/01 05:18:32;;;;;;;3.95;1.70;;;;;;;12.08;67.44;100668.56;1759857;80;21529;-44
2021/06/01 05:20:58;;;;;;;5.85;1.67;;;;;;;12.14;66.36;100670.84;1757250;80;21001;-43
2021/06/01 05:23:25;;;;;;;3.30;1.85;;;;;;;12.18;66.05;100675.53;1756713;80;21040;-43
2021/06/01 05:25:53;;;;;;;3.08;1.57;;;;;;;12.23;66.17;100680.13;1757282;80;21020;-44
2021/06/01 05:28:20;;;;;;;4.17;1.70;;;;;;;12.30;66.42;100677.45;1707614;80;21108;-47
2021/06/01 05:33:24;;;;;;;3.75;1.90;;;;;;;12.46;66.51;100680.02;1757162;80;20969;-46
2021/06/01 05:35:54;;;;;;;10.82;2.60;;;;;;;12.53;66.56;100674.17;1752082;80;21036;-45
2021/06/01 05:38:21;;;;;;;2.52;1.98;;;;;;;12.60;65.37;100673.32;1757536;80;21017;-47
2021/06/01 05:40:48;;;;;;;5.70;1.87;;;;;;;12.62;65.22;100674.05;1757827;80;21006;-42
2021/06/01 05:43:16;;;;;;;6.15;1.90;;;;;;;12.60;63.66;100670.64;1754877;80;21033;-42
2021/06/01 05:45:44;;;;;;;5.67;1.62;;;;;;;12.55;64.00;100666.92;1753999;80;21072;-46
2021/06/01 05:48:11;;;;;;;6.83;1.95;;;;;;;12.55;63.93;100671.42;1757723;80;20978;-45
2021/06/01 05:50:38;;;;;;;3.98;1.67;;;;;;;12.56;63.76;100669.96;1756669;80;21005;-46
2021/06/01 05:53:06;;;;;;;3.85;1.62;;;;;;;12.56;62.52;100676.65;1757382;80;21045;-45
2021/06/01 05:55:32;;;;;;;8.15;1.30;;;;;;;12.58;63.38;100677.05;1756559;80;21002;-51
2021/06/01 05:57:59;;;;;;;3.00;1.40;;;;;;;12.63;63.90;100678.47;1755150;80;21017;-54
2021/06/01 06:00:27;;;;;;;4.78;1.45;;;;;;;12.73;63.77;100677.40;1755695;80;20993;-51
2021/06/01 06:02:54;;;;;;;3.22;1.20;;;;;;;12.82;63.02;100677.27;1720278;81;21056;-45
2021/06/01 06:05:21;;;;;;;1.90;1.50;;;;;;;12.90;63.99;100684.31;1757594;80;21010;-49
2021/06/01 06:07:47;;;;;;;4.03;1.50;;;;;;;12.99;63.73;100681.05;1758017;80;20981;-45
2021/06/01 06:10:14;;;;;;;2.55;1.60;;;;;;;13.09;63.20;100686.18;1753983;80;21064;-50
2021/06/01 06:12:40;;;;;;;1.95;1.30;;;;;;;13.18;63.19;100686.07;1758534;80;21525;-46
2021/06/01 06:15:11;;;;;;;2.60;1.47;;;;;;;13.24;62.11;100689.67;1754226;80;20977;-45
2021/06/01 06:17:48;;;;;;;1.95;1.20;;;;;;;13.29;62.15;100692.08;1747159;82;21058;-45
2021/06/01 06:20:15;;;;;;;5.83;1.95;;;;;;;13.33;61.73;100686.88;1737697;80;20986;-44
2021/06/01 06:22:41;;;;;;;3.62;1.72;;;;;;;13.34;60.84;100688.13;1751984;80;21045;-49
2021/06/01 06:25:10;;;;;;;4.45;1.75;;;;;;;13.35;60.69;100689.83;1737673;81;21003;-46
2021/06/01 06:27:37;;;;;;;5.97;3.05;;;;;;;13.38;60.81;100685.63;1705455;82;21045;-46
2021/06/01 06:30:06;;;;;;;2.45;1.35;;;;;;;13.44;61.30;100683.02;1703748;82;21104;-46
2021/06/01 06:32:34;;;;;;;2.77;1.57;;;;;;;13.50;60.31;100672.36;1695873;83;21030;-44
2021/06/01 06:35:00;;;;;;;5.00;1.62;;;;;;;13.54;61.13;100672.05;1707798;83;21535;-49
2021/06/01 06:37:27;;;;;;;2.55;1.50;;;;;;;13.63;61.38;100670.09;1706948;82;21588;-47
2021/06/01 06:39:54;;;;;;;3.83;1.47;;;;;;;13.70;61.19;100673.20;1701029;83;20971;-51
2021/06/01 06:42:21;;;;;;;3.22;1.52;;;;;;;13.75;60.36;100667.53;1696614;82;21025;-47
2021/06/01 06:44:50;;;;;;;4.28;1.22;;;;;;;13.73;58.97;100660.92;1674100;84;21522;-45
2021/06/01 06:47:28;;;;;;;1.85;1.37;;;;;;;13.67;58.53;100665.86;1702893;83;20999;-44
2021/06/01 06:49:54;;;;;;;5.75;1.62;;;;;;;13.57;59.16;100669.16;1700378;82;21655;-44
2021/06/01 06:52:21;;;;;;;2.62;1.50;;;;;;;13.53;58.96;100673.03;1699771;82;21579;-42
2021/06/01 06:54:47;;;;;;;2.52;1.30;;;;;;;13.53;60.04;100669.01;1701215;82;20992;-46
2021/06/01 06:57:16;;;;;;;1.85;0.95;;;;;;;13.57;58.89;100663.80;1703017;82;21026;-47
2021/06/01 06:59:51;;;;;;;1.70;1.32;;;;;;;13.60;59.06;100668.09;1701441;83;21101;-43
2021/06/01 07:02:30;;;;;;;2.52;1.32;;;;;;;13.62;58.34;100668.85;1700384;83;21038;-49
2021/06/01 07:04:59;;;;;;;1.45;1.02;;;;;;;13.67;57.60;100660.50;1702223;83;21013;-47
2021/06/01 07:07:25;;;;;;;2.33;1.00;;;;;;;13.74;59.61;100668.50;1703687;83;21041;-44
2021/06/01 07:09:52;;;;;;;3.15;1.17;;;;;;;13.85;59.55;100666.78;1694143;82;21046;-45
2021/06/01 07:12:19;;;;;;;3.90;1.40;;;;;;;14.00;58.89;100648.77;1714859;82;21541;-52
2021/06/01 07:14:57;;;;;;;2.33;1.02;;;;;;;14.13;57.63;100666.19;1677970;84;21074;-45
2021/06/01 07:17:26;;;;;;;1.20;1.00;;;;;;;14.23;56.95;100665.91;1702916;82;21084;-48
2021/06/01 07:19:54;;;;;;;7.45;1.98;;;;;;;14.30;55.96;100665.01;1704545;83;21328;-48
2021/06/01 07:22:20;;;;;;;1.20;1.00;;;;;;;14.34;55.03;100654.45;1696797;83;21030;-53
2021/06/01 07:24:48;;;;;;;4.28;1.00;;;;;;;14.37;54.46;100659.58;1691775;83;21416;-43
2021/06/01 07:27:14;;;;;;;2.25;1.27;;;;;;;14.36;53.95;100657.85;1688630;83;21078;-47
2021/06/01 07:29:42;;;;;;;2.27;0.98;;;;;;;14.29;54.01;100660.13;1740582;81;21025;-44
2021/06/01 07:32:09;;;;;;;4.62;1.00;;;;;;;14.22;53.17;100665.55;1735974;81;21025;-45
2021/06/01 07:34:35;;;;;;;2.15;1.05;;;;;;;14.16;53.40;100669.14;1731604;81;21606;-45
2021/06/01 07:37:02;;;;;;;1.42;0.85;;;;;;;14.12;54.11;100662.30;1733021;81;21033;-44
2021/06/01 07:39:29;;;;;;;3.52;1.10;;;;;;;14.14;54.75;100665.73;1737615;81;21017;-45
2021/06/01 07:41:55;;;;;;;3.77;0.88;;;;;;;14.21;54.65;100671.02;1737204;81;21320;-46
2021/06/01 07:44:22;;;;;;;1.42;0.90;;;;;;;14.25;52.69;100664.48;1732906;81;21641;-47
2021/06/01 07:46:49;;;;;;;1.90;0.85;;;;;;;14.25;51.74;100672.52;1735052;81;21643;-48
2021/06/01 07:49:17;;;;;;;5.15;1.95;;;;;;;14.21;52.99;100673.70;1731041;81;21021;-45
2021/06/01 07:51:43;;;;;;;3.12;1.30;;;;;;;14.21;54.25;100673.70;1735729;81;21010;-46
2021/06/01 07:54:10;;;;;;;4.17;2.00;;;;;;;14.19;52.68;100667.12;1731060;81;20982;-44
2021/06/01 07:56:37;;;;;;;6.40;1.60;;;;;;;14.17;52.97;100664.17;1733203;81;21008;-44
2021/06/01 07:59:03;;;;;;;4.33;0.80;;;;;;;14.16;54.09;100666.00;1736072;81;20989;-46
2021/06/01 08:01:30;;;;;;;6.03;1.30;;;;;;;14.16;53.63;100661.98;1737831;81;20969;-46
2021/06/01 08:03:57;;;;;;;4.60;1.20;;;;;;;14.19;54.22;100656.39;1737022;81;20981;-48
2021/06/01 08:06:25;;;;;;;1.70;1.20;;;;;;;14.26;54.10;100650.97;1733436;81;21001;-46
2021/06/01 08:08:53;;;;;;;2.60;1.10;;;;;;;14.36;53.67;100650.30;1736215;81;21009;-46
2021/06/01 08:11:20;;;;;;;2.50;1.00;;;;;;;14.40;53.37;100649.97;1707610;82;21007;-46
2021/06/01 08:13:47;;;;;;;5.75;1.60;;;;;;;14.41;52.79;100648.14;1736771;81;20970;-50
2021/06/01 08:16:14;;;;;;;2.22;1.35;;;;;;;14.44;52.14;100643.42;1736369;81;21512;-44
2021/06/01 08:18:48;;;;;;;4.30;1.10;;;;;;;14.53;52.70;100644.61;1736234;81;21009;-54
2021/06/01 08:21:16;;;;;;;2.75;1.65;;;;;;;14.59;52.58;100648.20;1732687;81;21552;-49
2021/06/01 08:23:42;;;;;;;5.83;1.40;;;;;;;14.59;51.94;100641.95;1736664;81;21045;-48
2021/06/01 08:26:09;;;;;;;3.80;0.90;;;;;;;14.59;51.96;100647.32;1734388;81;21022;-47
2021/06/01 08:28:35;;;;;;;3.15;0.75;;;;;;;14.58;52.86;100647.81;1755958;80;21072;-44
2021/06/01 08:31:02;;;;;;;1.80;0.88;;;;;;;14.62;52.67;100634.55;1750779;80;20982;-46
2021/06/01 08:33:30;;;;;;;2.58;1.10;;;;;;;14.70;52.72;100638.02;1752777;80;21029;-44
2021/06/01 08:35:57;;;;;;;1.62;1.12;;;;;;;14.75;52.00;100641.72;1753501;80;21069;-46
2021/06/01 08:38:25;;;;;;;6.87;1.12;;;;;;;14.76;51.41;100636.21;1751957;80;21090;-46
2021/06/01 08:40:52;;;;;;;1.05;0.80;;;;;;;14.81;51.55;100625.99;1714844;81;21032;-45
2021/06/01 08:43:24;;;;;;;2.92;0.98;;;;;;;14.89;50.76;100631.67;1743401;80;20986;-45
2021/06/01 08:45:54;;;;;;;2.72;0.88;;;;;;;14.92;50.34;100632.78;1743025;80;21524;-45
2021/06/01 08:48:21;;;;;;;3.65;1.45;;;;;;;14.97;51.65;100620.83;1754206;80;21516;-46
2021/06/01 08:50:50;;;;;;;9.10;1.17;;;;;;;15.06;50.53;100622.34;1759645;80;21033;-47
2021/06/01 08:53:17;;;;;;;2.65;1.10;;;;;;;15.11;49.77;100624.69;1755818;80;20993;-47
2021/06/01 08:55:46;;;;;;;3.22;1.20;;;;;;;15.13;49.79;100619.57;1755640;80;21039;-46
2021/06/01 08:58:15;;;;;;;4.22;0.93;;;;;;;15.18;49.09;100619.23;1754729;80;21007;-46
2021/06/01 09:00:41;;;;;;;4.60;1.00;;;;;;;15.23;50.30;100618.39;1757815;80;21365;-46
2021/06/01 09:03:18;;;;;;;4.83;1.07;;;;;;;15.28;49.90;100624.27;1756404;80;21031;-46
2021/06/01 09:11:51;;;;;;;3.83;1.47;;;;;;;15.40;49.16;100621.15;1719946;81;21055;-46
2021/06/01 09:22:34;;;;;;;1.62;1.10;;;;;;;15.52;48.63;100614.83;1753619;80;21003;-44
2021/06/01 09:25:33;;;;;;;1.67;0.80;;;;;;;15.58;48.10;100616.19;1754554;80;21021;-46
2021/06/01 09:27:53;;;;;;;2.67;1.02;;;;;;;15.68;47.08;100613.16;1742155;80;21022;-45
2021/06/01 09:30:39;;;;;;;1.25;0.75;;;;;;;15.83;47.96;100619.69;1735562;80;21069;-45
2021/06/01 09:33:21;;;;;;;2.45;1.00;;;;;;;15.93;45.72;100608.09;1732721;80;21494;-44
2021/06/01 09:35:50;;;;;;;;;;;;;;;16.04;47.52;100611.27;1705658;82;20990;-48
2021/06/01 09:38:28;;;;;;;2.70;1.20;;;;;;;16.17;48.91;100603.07;1698545;82;20194;-47
2021/06/01 09:41:18;;;;;;;4.92;1.32;;;;;;;16.28;48.11;100594.13;1617648;86;21041;-45
2021/06/01 09:43:50;;;;;;;5.87;1.20;;;;;;;16.39;47.60;100611.13;1623827;86;21096;-44
2021/06/01 09:46:35;;;;;;;2.72;1.60;;;;;;;16.50;47.07;100590.56;1656325;85;21523;-44
2021/06/01 09:49:20;;;;;;;2.65;1.45;;;;;;;16.57;46.94;100595.31;1662599;84;21006;-44
2021/06/01 09:51:54;;;;;;;1.60;0.72;;;;;;;16.63;46.72;100598.87;1664607;84;21055;-48
2021/06/01 09:54:30;;;;;;;;;;;;;;;16.63;43.24;100591.26;1658942;84;21078;-46
2021/06/01 09:56:57;;;;;;;9.90;1.55;;;;;;;16.58;45.55;100593.01;1621815;86;20615;-49
2021/06/01 09:59:25;;;;;;;4.70;1.37;;;;;;;16.62;45.74;100595.80;1618282;86;21078;-49
2021/06/01 10:01:53;;;;;;;3.27;0.88;;;;;;;16.69;45.99;100596.66;1657798;84;21159;-47
2021/06/01 10:04:26;;;;;;;1.10;0.70;;;;;;;16.77;46.42;100595.52;1662516;84;21727;-46
2021/06/01 10:06:53;;;;;;;3.47;1.05;;;;;;;16.83;45.85;100590.53;1660716;85;21069;-49
2021/06/01 10:09:21;;;;;;;1.52;0.95;;;;;;;16.85;45.54;100597.96;1654889;84;21046;-55
2021/06/01 10:11:57;;;;;;;2.60;1.00;;;;;;;16.85;44.86;100595.77;1641862;85;21104;-47
2021/06/01 10:14:24;;;;;;;3.22;1.20;;;;;;;16.87;44.58;100596.50;1661566;84;21161;-47
2021/06/01 10:16:53;;;;;;;1.98;0.98;;;;;;;16.90;44.55;100592.70;1658963;84;21139;-48
2021/06/01 10:19:20;;;;;;;4.35;1.00;;;;;;;16.90;43.05;100598.08;1733823;81;20990;-49
2021/06/01 10:21:53;;;;;;;1.98;0.90;;;;;;;16.90;44.37;100594.05;1736261;80;21050;-47
2021/06/01 10:24:16;;;;;;;4.60;1.00;;;;;;;16.89;43.64;100594.54;1706389;82;21046;-45
2021/06/01 10:26:42;;;;;;;2.17;0.90;;;;;;;16.85;42.76;100596.61;1655844;84;21033;-47
2021/06/01 10:29:09;;;;;;;8.18;1.17;;;;;;;16.77;41.32;100595.52;1695053;82;21113;-46
2021/06/01 10:31:36;;;;;;;3.95;1.35;;;;;;;16.71;42.79;100598.73;1709399;82;21089;-46
2021/06/01 10:34:04;;;;;;;3.60;1.40;;;;;;;16.68;43.01;100595.77;1710867;82;21026;-46
2021/06/01 10:50:40;;;;;;;2.12;1.17;;;;;;;16.69;42.25;100585.88;1712053;82;21564;-47
2021/06/01 10:53:17;;;;;;;2.80;1.02;;;;;;;16.65;42.65;100586.61;1710873;82;21008;-47
2021/06/01 10:55:55;;;;;;;1.90;1.32;;;;;;;16.57;42.11;100589.93;1709266;82;21025;-45
2021/06/01 10:58:42;;;;;;;2.62;1.87;;;;;;;16.50;42.74;100592.75;1708166;82;21003;-46
2021/06/01 11:06:58;;;;;;;2.22;0.98;;;;;;;16.19;43.17;100592.55;1711898;82;21025;-49
2021/06/01 11:09:37;;;;;;;1.55;1.12;;;;;;;16.09;43.56;100589.38;1744705;80;21009;-46
2021/06/01 11:12:20;;;;;;;4.85;1.12;;;;;;;16.06;44.01;100586.95;1751419;80;21521;-46
2021/06/01 11:14:51;;;;;;;5.15;1.27;;;;;;;16.04;42.98;100592.93;1748493;80;21387;-49
2021/06/01 11:17:36;;;;;;;5.28;0.90;;;;;;;16.05;44.08;100586.56;1747360;80;21011;-49
2021/06/01 11:20:17;;;;;;;4.58;2.80;;;;;;;16.12;45.23;100591.82;1743529;80;21497;-51
2021/06/01 11:23:10;;;;;;;3.83;1.45;;;;;;;16.22;45.01;100585.58;1744518;80;21068;-47
2021/06/01 11:33:39;;;;;;;3.75;1.20;;;;;;;16.42;44.21;100585.80;1738246;80;21022;-50
2021/06/01 11:36:17;;;;;;;2.02;0.98;;;;;;;16.48;43.47;100583.98;1705401;82;21020;-47
2021/06/01 11:38:55;;;;;;;3.02;1.32;;;;;;;16.54;42.70;100587.50;1664460;84;21108;-49
2021/06/01 11:44:21;;;;;;;1.42;0.82;;;;;;;16.48;42.67;100587.13;1670826;84;21526;-49
2021/06/01 11:46:58;;;;;;;4.10;1.17;;;;;;;16.43;42.90;100587.03;1668705;83;21347;-41
2021/06/01 11:52:09;;;;;;;2.33;1.22;;;;;;;16.48;44.65;100585.33;1663691;84;21021;-47
2021/06/01 11:54:36;;;;;;;3.35;2.47;;;;;;;16.52;44.10;100585.41;1666716;83;21061;-50
2021/06/01 12:19:02;;;;;;;3.22;0.95;;;;;;;16.76;41.21;100581.70;1669123;84;20998;-47
2021/06/01 12:21:40;;;;;;;1.30;0.70;;;;;;;16.65;42.36;100581.22;1670399;83;21070;-52
2021/06/01 12:24:18;;;;;;;1.10;0.65;;;;;;;16.62;42.17;100581.48;1669883;84;21545;-48
2021/06/01 12:32:31;;;;;;;1.52;1.20;;;;;;;16.42;41.29;100585.80;1725599;80;21604;-47
2021/06/01 12:35:15;;;;;;;2.25;1.35;;;;;;;16.44;41.65;100576.63;1733748;80;21417;-44
2021/06/01 12:43:31;;;;;;;3.77;0.80;;;;;;;16.55;41.92;100569.01;1737910;80;21021;-45
2021/06/01 13:20:29;;;;;;;3.80;1.40;;;;;;;16.48;41.18;100571.87;1735624;80;21005;-42
2021/06/01 13:31:35;;;;;;;3.12;1.25;;;;;;;16.30;42.03;100571.50;1629005;85;21148;-47
2021/06/01 13:36:38;;;;;;;3.10;1.52;;;;;;;16.32;41.68;100568.20;1629056;86;22007;-41
2021/06/01 13:39:03;;;;;;;2.52;1.22;;;;;;;16.30;41.23;100571.50;1632225;86;21625;-43
2021/06/01 13:46:57;;;;;;;3.40;1.17;;;;;;;16.33;41.32;100568.58;1634720;86;21033;-43
2021/06/01 13:49:47;;;;;;;2.20;1.12;;;;;;;16.34;40.81;100568.09;1634037;86;21918;-48
2021/06/01 14:10:49;;;;;;;3.55;0.90;;;;;;;16.59;41.78;100587.13;1583706;88;21054;-50
2021/06/01 14:21:50;;;;;;;2.05;1.40;;;;;;;16.51;42.22;100577.48;1594186;87;21037;-52
2021/06/01 15:31:45;;;;;;;1.02;0.90;;;;;;;16.18;43.46;100571.17;1620426;86;21167;-48
2021/06/01 15:50:29;;;;;;;2.95;1.02;;;;;;;15.91;41.54;100580.95;1736372;81;21033;-47
2021/06/01 16:11:15;;;;;;;2.62;1.47;;;;;;;15.86;42.23;100589.37;1743041;80;20990;-46
2021/06/01 16:23:09;;;;;;;2.75;1.27;;;;;;;15.98;43.99;100586.22;1668666;84;21026;-44